createdAt,value
2023-10-19T00:00:57.560Z,84.50
2023-10-19T00:03:27.004Z,84.70
2023-10-19T00:05:58.869Z,85.10
2023-10-19T00:08:26.154Z,85.50
2023-10-19T00:11:03.498Z,85.50
2023-10-19T00:13:31.369Z,85.80
2023-10-19T00:16:00.588Z,85.80
2023-10-19T00:18:33.732Z,85.80
2023-10-19T00:21:12.151Z,86.00
2023-10-19T00:23:41.051Z,85.80
2023-10-19T00:26:11.847Z,85.90
2023-10-19T00:28:40.385Z,86.30
2023-10-19T00:31:10.217Z,86.60
2023-10-19T00:33:40.176Z,86.90
2023-10-19T00:36:09.713Z,87.20
2023-10-19T00:38:42.679Z,87.10
2023-10-19T00:41:20.632Z,87.50
2023-10-19T00:43:50.330Z,87.50
2023-10-19T00:46:26.622Z,87.40
2023-10-19T00:48:59.255Z,87.50
2023-10-19T00:51:42.001Z,88.10
2023-10-19T00:54:15.354Z,87.90
2023-10-19T00:56:47.562Z,87.70
2023-10-19T00:59:21.601Z,87.30
2023-10-19T01:01:55.581Z,86.70
2023-10-19T01:04:33.335Z,87.70
2023-10-19T01:07:06.234Z,88.20
2023-10-19T01:09:36.583Z,88.00
2023-10-19T01:12:22.649Z,88.20
2023-10-19T01:15:08.949Z,88.30
2023-10-19T01:17:40.819Z,89.80
2023-10-19T01:20:23.124Z,88.40
2023-10-19T01:23:07.868Z,89.00
2023-10-19T01:25:47.354Z,88.70
2023-10-19T01:28:18.442Z,89.40
2023-10-19T01:30:52.659Z,88.30
2023-10-19T01:33:21.716Z,88.70
2023-10-19T01:36:07.828Z,88.60
2023-10-19T01:38:37.406Z,88.60
2023-10-19T01:41:08.605Z,88.80
2023-10-19T01:43:41.566Z,88.90
2023-10-19T01:46:23.316Z,88.90
2023-10-19T01:48:56.420Z,89.10
2023-10-19T01:51:24.885Z,89.20
2023-10-19T01:53:56.465Z,89.20
2023-10-19T01:56:24.607Z,89.20
2023-10-19T01:58:53.891Z,89.10
2023-10-19T02:01:22.072Z,89.40
2023-10-19T02:03:54.914Z,89.40
2023-10-19T02:06:27.497Z,89.50
2023-10-19T02:09:01.249Z,89.90
2023-10-19T02:11:29.857Z,89.50
2023-10-19T02:14:01.108Z,89.60
2023-10-19T02:16:30.670Z,89.70
2023-10-19T02:18:59.068Z,89.70
2023-10-19T02:21:31.667Z,89.90
2023-10-19T02:24:01.205Z,89.80
2023-10-19T02:26:28.825Z,90.00
2023-10-19T02:28:57.476Z,89.90
2023-10-19T02:31:26.339Z,89.80
2023-10-19T02:34:00.874Z,90.00
2023-10-19T02:36:30.066Z,90.10
2023-10-19T02:38:59.983Z,90.00
2023-10-19T02:41:29.494Z,90.10
2023-10-19T02:44:03.758Z,90.20
2023-10-19T02:46:31.653Z,90.10
2023-10-19T02:49:04.017Z,90.10
2023-10-19T02:51:31.374Z,90.30
2023-10-19T02:54:03.252Z,90.20
2023-10-19T02:56:31.850Z,90.30
2023-10-19T02:59:04.958Z,90.40
2023-10-19T03:01:34.813Z,90.40
2023-10-19T03:04:05.774Z,90.50
2023-10-19T03:06:34.139Z,90.50
2023-10-19T03:09:14.441Z,90.50
2023-10-19T03:11:43.733Z,90.60
2023-10-19T03:14:13.002Z,90.70
2023-10-19T03:16:43.387Z,90.70
2023-10-19T03:19:12.652Z,90.70
2023-10-19T03:21:43.772Z,90.70
2023-10-19T03:24:14.199Z,90.70
2023-10-19T03:26:49.673Z,90.70
2023-10-19T03:29:19.366Z,90.90
2023-10-19T03:31:48.565Z,90.70
2023-10-19T03:34:18.005Z,90.80
2023-10-19T03:36:46.766Z,90.80
2023-10-19T03:39:15.680Z,90.90
2023-10-19T03:41:45.753Z,90.90
2023-10-19T03:44:20.338Z,91.00
2023-10-19T03:46:59.169Z,91.00
2023-10-19T03:49:35.365Z,91.00
2023-10-19T03:52:21.206Z,91.10
2023-10-19T03:54:50.297Z,91.00
2023-10-19T03:57:26.041Z,91.10
2023-10-19T03:59:58.704Z,91.30
2023-10-19T04:02:30.031Z,91.20
2023-10-19T04:04:59.427Z,91.30
2023-10-19T04:07:28.472Z,91.30
2023-10-19T04:10:10.444Z,91.40
2023-10-19T04:12:43.556Z,91.50
2023-10-19T04:15:14.215Z,91.60
2023-10-19T04:17:43.787Z,91.50
2023-10-19T04:20:29.344Z,91.50
2023-10-19T04:22:59.062Z,91.60
2023-10-19T04:25:28.379Z,91.50
2023-10-19T04:27:58.563Z,91.60
2023-10-19T04:30:27.520Z,91.70
2023-10-19T04:32:58.919Z,91.70
2023-10-19T04:35:31.338Z,91.70
2023-10-19T04:38:01.037Z,91.70
2023-10-19T04:40:29.837Z,91.60
2023-10-19T04:43:00.901Z,91.50
2023-10-19T04:45:30.852Z,91.60
2023-10-19T04:47:59.490Z,91.50
2023-10-19T04:50:27.703Z,91.50
2023-10-19T04:52:55.919Z,91.50
2023-10-19T04:55:24.320Z,91.60
2023-10-19T04:57:52.478Z,91.70
2023-10-19T05:00:22.775Z,91.50
2023-10-19T05:02:53.312Z,91.70
2023-10-19T05:05:21.851Z,91.60
2023-10-19T05:07:50.238Z,91.60
2023-10-19T05:10:18.653Z,91.70
2023-10-19T05:12:46.898Z,91.70
2023-10-19T05:15:16.976Z,91.70
2023-10-19T05:17:46.959Z,91.80
2023-10-19T05:20:15.199Z,91.80
2023-10-19T05:22:43.526Z,91.70
2023-10-19T05:25:11.814Z,91.80
2023-10-19T05:27:40.496Z,91.80
2023-10-19T05:30:11.484Z,91.90
2023-10-19T05:32:40.086Z,91.90
2023-10-19T05:35:14.393Z,91.90
2023-10-19T05:37:42.804Z,92.10
2023-10-19T05:40:16.164Z,91.90
2023-10-19T05:42:44.525Z,92.10
2023-10-19T05:45:14.323Z,92.00
2023-10-19T05:47:42.898Z,92.00
2023-10-19T05:50:15.434Z,91.90
2023-10-19T05:52:44.031Z,92.10
2023-10-19T05:55:12.692Z,92.00
2023-10-19T05:57:42.348Z,92.00
2023-10-19T06:00:15.044Z,92.20
2023-10-19T06:02:46.338Z,92.30
2023-10-19T06:05:17.863Z,92.30
2023-10-19T06:07:46.999Z,92.30
2023-10-19T06:10:18.298Z,92.20
2023-10-19T06:12:47.913Z,92.20
2023-10-19T06:15:17.153Z,92.20
2023-10-19T06:17:47.151Z,92.20
2023-10-19T06:20:25.867Z,92.30
2023-10-19T06:22:54.796Z,92.30
2023-10-19T06:25:24.239Z,92.30
2023-10-19T06:27:53.716Z,92.40
2023-10-19T06:30:24.199Z,92.40
2023-10-19T06:32:54.042Z,92.40
2023-10-19T06:35:24.620Z,92.40
2023-10-19T06:37:52.790Z,92.50
2023-10-19T06:40:21.651Z,92.40
2023-10-19T06:42:50.402Z,92.50
2023-10-19T06:45:20.159Z,92.50
2023-10-19T06:47:49.985Z,92.50
2023-10-19T06:50:20.957Z,92.50
2023-10-19T06:52:51.335Z,92.50
2023-10-19T06:55:21.353Z,92.60
2023-10-19T06:57:50.975Z,92.90
2023-10-19T07:00:21.671Z,92.60
2023-10-19T07:02:51.937Z,92.60
2023-10-19T07:05:23.240Z,92.60
2023-10-19T07:07:55.931Z,92.60
2023-10-19T07:10:25.043Z,92.70
2023-10-19T07:12:55.685Z,92.60
2023-10-19T07:15:26.589Z,92.70
2023-10-19T07:17:56.350Z,92.70
2023-10-19T07:20:28.367Z,92.80
2023-10-19T07:23:01.663Z,92.70
2023-10-19T07:25:30.536Z,92.80
2023-10-19T07:28:01.049Z,92.80
2023-10-19T07:30:29.544Z,92.70
2023-10-19T07:33:00.017Z,92.70
2023-10-19T07:35:28.737Z,92.80
2023-10-19T07:37:58.850Z,92.80
2023-10-19T07:40:27.235Z,92.90
2023-10-19T07:42:56.208Z,92.80
2023-10-19T07:45:24.527Z,92.80
2023-10-19T07:47:53.018Z,92.70
2023-10-19T07:50:23.728Z,92.80
2023-10-19T07:52:53.472Z,92.70
2023-10-19T07:55:25.412Z,92.80
2023-10-19T07:57:53.852Z,92.80
2023-10-19T08:00:22.709Z,92.80
2023-10-19T08:02:52.669Z,92.80
2023-10-19T08:05:20.937Z,92.70
2023-10-19T08:07:49.773Z,92.70
2023-10-19T08:10:19.585Z,92.70
2023-10-19T08:12:50.362Z,92.80
2023-10-19T08:15:19.416Z,92.80
2023-10-19T08:17:49.820Z,92.80
2023-10-19T08:20:26.403Z,92.90
2023-10-19T08:22:58.285Z,92.80
2023-10-19T08:25:33.455Z,92.80
2023-10-19T08:28:07.594Z,92.90
2023-10-19T08:30:35.797Z,92.90
2023-10-19T08:33:04.720Z,92.90
2023-10-19T08:35:33.343Z,93.00
2023-10-19T08:38:01.763Z,93.00
2023-10-19T08:40:30.139Z,93.00
2023-10-19T08:42:58.362Z,92.90
2023-10-19T08:45:29.032Z,92.80
2023-10-19T08:47:58.991Z,92.80
2023-10-19T08:50:28.183Z,92.80
2023-10-19T08:52:58.005Z,92.80
2023-10-19T08:55:41.565Z,92.80
2023-10-19T08:58:17.225Z,92.90
2023-10-19T09:00:50.300Z,92.90
2023-10-19T09:03:19.513Z,93.00
2023-10-19T09:05:48.962Z,92.90
2023-10-19T09:08:19.730Z,92.90
2023-10-19T09:10:48.813Z,92.90
2023-10-19T09:13:20.312Z,92.80
2023-10-19T09:15:51.176Z,92.90
2023-10-19T09:18:20.971Z,92.90
2023-10-19T09:20:55.103Z,93.10
2023-10-19T09:23:23.866Z,92.80
2023-10-19T09:25:53.945Z,92.70
2023-10-19T09:28:23.015Z,92.60
2023-10-19T09:30:53.575Z,92.60
2023-10-19T09:33:23.575Z,92.90
2023-10-19T09:35:54.188Z,92.60
2023-10-19T09:38:23.730Z,92.70
2023-10-19T09:40:52.203Z,92.80
2023-10-19T09:43:39.917Z,92.90
2023-10-19T09:46:12.762Z,93.10
2023-10-19T09:48:44.086Z,92.90
2023-10-19T09:51:16.554Z,92.80
2023-10-19T09:53:48.648Z,92.70
2023-10-19T09:56:22.377Z,92.70
2023-10-19T09:58:55.701Z,92.60
2023-10-19T10:01:25.096Z,92.50
2023-10-19T10:03:54.325Z,92.30
2023-10-19T10:06:31.047Z,92.20
2023-10-19T10:09:04.655Z,92.40
2023-10-19T10:11:33.755Z,92.20
2023-10-19T10:14:02.027Z,92.10
2023-10-19T10:16:31.762Z,92.00
2023-10-19T10:19:02.268Z,92.10
2023-10-19T10:21:31.910Z,92.10
2023-10-19T10:24:01.831Z,91.90
2023-10-19T10:26:36.533Z,91.80
2023-10-19T10:29:14.650Z,91.80
2023-10-19T10:31:48.613Z,91.70
2023-10-19T10:34:44.782Z,91.70
2023-10-19T10:37:14.575Z,91.90
2023-10-19T10:39:46.190Z,91.80
2023-10-19T10:42:17.939Z,91.80
2023-10-19T10:44:48.155Z,91.70
2023-10-19T10:47:23.151Z,91.60
2023-10-19T10:49:53.144Z,91.70
2023-10-19T10:52:33.063Z,91.60
2023-10-19T10:55:08.986Z,91.80
2023-10-19T10:57:37.841Z,91.70
2023-10-19T11:00:16.447Z,91.80
2023-10-19T11:02:48.338Z,91.90
2023-10-19T11:05:17.725Z,91.90
2023-10-19T11:08:08.254Z,91.80
2023-10-19T11:10:37.326Z,91.90
2023-10-19T11:13:07.250Z,91.70
2023-10-19T11:15:36.022Z,91.60
2023-10-19T11:18:05.997Z,91.80
2023-10-19T11:20:34.353Z,91.40
2023-10-19T11:23:03.697Z,91.40
2023-10-19T11:25:33.303Z,91.30
2023-10-19T11:28:05.995Z,91.30
2023-10-19T11:30:34.998Z,91.30
2023-10-19T11:33:07.199Z,91.30
2023-10-19T11:35:36.177Z,91.40
2023-10-19T11:38:05.219Z,91.50
2023-10-19T11:40:33.713Z,91.50
2023-10-19T11:43:02.353Z,91.60
2023-10-19T11:45:31.150Z,91.50
2023-10-19T11:47:59.707Z,91.30
2023-10-19T11:50:29.538Z,91.20
2023-10-19T11:52:58.470Z,91.10
2023-10-19T11:55:26.972Z,91.10
2023-10-19T11:57:55.125Z,91.00
2023-10-19T12:00:26.141Z,91.10
2023-10-19T12:02:54.613Z,90.90
2023-10-19T12:05:25.105Z,90.80
2023-10-19T12:07:55.622Z,90.60
2023-10-19T12:10:29.414Z,90.30
2023-10-19T12:13:02.135Z,90.20
2023-10-19T12:15:32.500Z,90.10
2023-10-19T12:18:01.045Z,90.00
2023-10-19T12:20:30.085Z,89.70
2023-10-19T12:23:00.059Z,89.60
2023-10-19T12:25:49.953Z,89.60
2023-10-19T12:28:22.786Z,89.50
2023-10-19T12:30:51.052Z,89.50
2023-10-19T12:33:21.239Z,89.60
2023-10-19T12:35:55.079Z,90.20
2023-10-19T12:38:25.050Z,89.90
2023-10-19T12:40:53.689Z,89.90
2023-10-19T12:43:23.619Z,90.00
2023-10-19T12:45:59.400Z,90.10
2023-10-19T12:48:36.436Z,90.20
2023-10-19T12:51:08.638Z,90.20
2023-10-19T12:53:39.903Z,90.20
2023-10-19T12:56:09.115Z,90.20
2023-10-19T12:58:41.084Z,90.20
2023-10-19T13:01:18.203Z,90.20
2023-10-19T13:04:26.566Z,90.10
2023-10-19T13:07:05.021Z,90.10
2023-10-19T13:13:42.079Z,90.20
2023-10-19T13:16:11.580Z,90.10
2023-10-19T13:18:41.905Z,90.00
2023-10-19T13:21:13.063Z,90.10
2023-10-19T13:23:42.481Z,90.10
2023-10-19T13:26:19.106Z,90.20
2023-10-19T13:28:50.101Z,90.20
2023-10-19T13:31:20.576Z,90.20
2023-10-19T13:33:55.469Z,90.20
2023-10-19T13:36:26.501Z,90.20
2023-10-19T13:38:55.737Z,90.30
2023-10-19T13:41:26.900Z,90.30
2023-10-19T13:43:57.065Z,90.40
2023-10-19T13:46:26.763Z,90.40
2023-10-19T13:48:56.003Z,90.40
2023-10-19T13:51:24.176Z,90.40
2023-10-19T13:53:52.765Z,90.50
2023-10-19T13:56:20.943Z,90.50
2023-10-19T13:58:49.158Z,90.50
2023-10-19T14:01:20.231Z,90.50
2023-10-19T14:03:48.455Z,90.50
2023-10-19T14:06:18.044Z,90.40
2023-10-19T14:08:46.658Z,90.40
2023-10-19T14:11:15.857Z,90.40
2023-10-19T14:13:44.681Z,90.40
2023-10-19T14:16:13.065Z,90.50
2023-10-19T14:18:44.742Z,90.40
2023-10-19T14:21:15.093Z,90.40
2023-10-19T14:23:43.814Z,90.50
2023-10-19T14:26:12.975Z,90.50
2023-10-19T14:28:42.208Z,90.40
2023-10-19T14:31:12.113Z,90.40
2023-10-19T14:33:42.005Z,90.50
2023-10-19T14:36:13.611Z,90.40
2023-10-19T14:38:44.032Z,90.50
2023-10-19T14:41:12.217Z,90.50
2023-10-19T14:43:40.510Z,90.50
2023-10-19T14:46:08.810Z,90.50
2023-10-19T14:48:37.771Z,90.50
2023-10-19T14:51:08.481Z,90.60
2023-10-19T14:53:36.807Z,90.60
2023-10-19T14:56:07.315Z,90.60
2023-10-19T14:58:35.585Z,90.60
2023-10-19T15:01:03.796Z,90.70
2023-10-19T15:03:31.968Z,90.70
2023-10-19T15:06:00.904Z,90.80
2023-10-19T15:08:32.676Z,90.80
2023-10-19T15:11:03.469Z,90.90
2023-10-19T15:13:31.584Z,90.90
2023-10-19T15:16:00.099Z,90.90
2023-10-19T15:18:28.507Z,90.90
2023-10-19T15:20:56.878Z,91.00
2023-10-19T15:23:27.099Z,91.00
2023-10-19T15:25:56.966Z,91.00
2023-10-19T15:28:25.129Z,91.00
2023-10-19T15:30:54.307Z,91.00
2023-10-19T15:33:23.052Z,91.10
2023-10-19T15:35:52.472Z,91.10
2023-10-19T15:38:22.010Z,91.10
2023-10-19T15:40:54.064Z,91.10
2023-10-19T15:43:24.052Z,91.20
2023-10-19T15:45:52.336Z,91.20
2023-10-19T15:48:20.515Z,91.20
2023-10-19T15:50:49.094Z,91.30
2023-10-19T15:53:18.350Z,91.30
2023-10-19T15:55:48.221Z,91.40
2023-10-19T15:58:17.318Z,91.50
2023-10-19T16:00:48.217Z,91.60
2023-10-19T16:06:07.738Z,91.90
2023-10-19T16:08:37.213Z,91.60
2023-10-19T16:11:05.703Z,91.70
2023-10-19T16:13:34.135Z,91.80
2023-10-19T16:16:06.097Z,91.80
2023-10-19T16:18:37.916Z,92.00
2023-10-19T16:21:07.362Z,92.10
2023-10-19T16:23:35.676Z,92.00
2023-10-19T16:26:04.595Z,92.00
2023-10-19T16:28:34.151Z,92.10
2023-10-19T16:31:08.721Z,92.10
2023-10-19T16:33:37.087Z,92.30
2023-10-19T16:36:06.550Z,92.20
2023-10-19T16:38:34.872Z,92.20
2023-10-19T16:41:03.856Z,92.20
2023-10-19T16:43:32.099Z,92.30
2023-10-19T16:46:01.544Z,92.40
2023-10-19T16:48:31.205Z,92.40
2023-10-19T16:51:06.339Z,92.40
2023-10-19T16:53:34.725Z,92.60
2023-10-19T16:56:03.750Z,92.50
2023-10-19T16:58:32.089Z,92.50
2023-10-19T17:01:12.136Z,92.50
2023-10-19T17:03:42.837Z,92.70
2023-10-19T17:06:11.106Z,92.40
2023-10-19T17:08:40.178Z,92.40
2023-10-19T17:11:10.370Z,92.40
2023-10-19T17:13:39.194Z,92.40
2023-10-19T17:16:07.794Z,92.40
2023-10-19T17:18:36.455Z,92.50
2023-10-19T17:21:06.923Z,92.50
2023-10-19T17:23:36.762Z,92.50
2023-10-19T17:26:04.964Z,92.50
2023-10-19T17:28:33.353Z,92.60
2023-10-19T17:31:01.658Z,92.60
2023-10-19T17:33:32.409Z,92.60
2023-10-19T17:36:00.857Z,92.60
2023-10-19T17:38:33.730Z,92.60
2023-10-19T17:41:01.933Z,92.70
2023-10-19T17:43:30.262Z,92.60
2023-10-19T17:45:58.462Z,92.60
2023-10-19T17:48:27.341Z,92.60
2023-10-19T17:50:55.532Z,92.60
2023-10-19T17:53:24.619Z,92.60
2023-10-19T17:55:57.852Z,92.50
2023-10-19T17:58:26.518Z,92.60
2023-10-19T18:00:54.750Z,92.40
2023-10-19T18:03:25.865Z,92.40
2023-10-19T18:05:55.764Z,92.40
2023-10-19T18:08:33.558Z,92.40
2023-10-19T18:11:13.273Z,92.40
2023-10-19T18:13:42.001Z,92.40
2023-10-19T18:16:12.123Z,92.40
2023-10-19T18:18:40.618Z,92.40
2023-10-19T18:21:12.641Z,92.40
2023-10-19T18:23:40.982Z,92.50
2023-10-19T18:26:11.243Z,92.50
2023-10-19T18:28:43.256Z,92.50
2023-10-19T18:31:11.837Z,92.50
2023-10-19T18:33:42.171Z,92.50
2023-10-19T18:36:25.611Z,92.50
2023-10-19T18:38:56.278Z,92.70
2023-10-19T18:41:27.336Z,92.50
2023-10-19T18:43:59.690Z,92.60
2023-10-19T18:46:28.460Z,92.50
2023-10-19T18:48:56.694Z,92.50
2023-10-19T18:51:24.859Z,92.50
2023-10-19T18:53:53.116Z,92.50
2023-10-19T18:56:21.315Z,92.50
2023-10-19T18:58:50.973Z,92.50
2023-10-19T19:01:19.181Z,92.60
2023-10-19T19:03:47.404Z,92.50
2023-10-19T19:06:15.912Z,92.50
2023-10-19T19:08:44.117Z,92.50
2023-10-19T19:11:13.669Z,92.50
2023-10-19T19:13:43.213Z,92.60
2023-10-19T19:16:13.701Z,92.60
2023-10-19T19:18:42.480Z,92.60
2023-10-19T19:21:11.302Z,92.60
2023-10-19T19:23:42.064Z,92.60
2023-10-19T19:26:11.894Z,92.70
2023-10-19T19:28:43.986Z,92.70
2023-10-19T19:31:19.635Z,92.70
2023-10-19T19:33:48.968Z,92.80
2023-10-19T19:36:19.939Z,92.70
2023-10-19T19:38:48.806Z,92.70
2023-10-19T19:41:17.791Z,92.80
2023-10-19T19:43:46.478Z,92.80
2023-10-19T19:46:18.156Z,92.80
2023-10-19T19:48:46.674Z,92.80
2023-10-19T19:51:16.637Z,92.90
2023-10-19T19:53:46.153Z,92.80
2023-10-19T19:56:18.523Z,92.90
2023-10-19T19:58:46.870Z,92.90
2023-10-19T20:01:16.547Z,92.80
2023-10-19T20:03:44.960Z,92.90
2023-10-19T20:06:15.819Z,92.80
2023-10-19T20:08:44.255Z,92.90
2023-10-19T20:11:20.614Z,92.80
2023-10-19T20:13:49.303Z,93.00
2023-10-19T20:16:19.288Z,92.80
2023-10-19T20:18:47.658Z,92.80
2023-10-19T20:21:17.934Z,92.90
2023-10-19T20:23:46.205Z,92.90
2023-10-19T20:26:15.841Z,92.90
2023-10-19T20:28:44.309Z,92.90
2023-10-19T20:31:15.781Z,92.90
2023-10-19T20:33:45.928Z,93.00
2023-10-19T20:36:14.869Z,93.00
2023-10-19T20:38:43.142Z,93.00
2023-10-19T20:41:13.265Z,93.00
2023-10-19T20:43:44.081Z,93.00
2023-10-19T20:46:12.575Z,93.00
2023-10-19T20:48:41.647Z,93.00
2023-10-19T20:51:18.038Z,93.10
2023-10-19T20:53:47.311Z,93.20
2023-10-19T20:56:21.945Z,93.00
2023-10-19T20:58:50.208Z,93.00
2023-10-19T21:01:21.325Z,93.00
2023-10-19T21:03:49.555Z,93.00
2023-10-19T21:06:19.215Z,93.00
2023-10-19T21:08:47.471Z,93.00
2023-10-19T21:11:19.770Z,93.00
2023-10-19T21:13:49.184Z,93.00
2023-10-19T21:16:17.848Z,93.00
2023-10-19T21:18:46.233Z,92.90
2023-10-19T21:21:14.953Z,92.90
2023-10-19T21:23:44.582Z,92.90
2023-10-19T21:26:14.404Z,93.00
2023-10-19T21:28:42.901Z,93.00
2023-10-19T21:31:12.016Z,93.00
2023-10-19T21:33:40.846Z,93.00
2023-10-19T21:36:09.166Z,93.00
2023-10-19T21:38:39.239Z,93.00
2023-10-19T21:41:08.894Z,93.00
2023-10-19T21:43:37.366Z,93.00
2023-10-19T21:46:08.900Z,93.00
2023-10-19T21:48:37.082Z,92.90
2023-10-19T21:51:05.429Z,92.90
2023-10-19T21:53:34.069Z,92.90
2023-10-19T21:56:02.338Z,92.80
2023-10-19T21:58:32.397Z,92.90
2023-10-19T22:01:01.785Z,92.90
2023-10-19T22:03:30.538Z,92.90
2023-10-19T22:05:59.068Z,92.80
2023-10-19T22:08:28.357Z,92.90
2023-10-19T22:10:57.122Z,92.90
2023-10-19T22:13:25.445Z,92.90
2023-10-19T22:15:55.070Z,92.90
2023-10-19T22:18:24.342Z,93.00
2023-10-19T22:20:56.183Z,93.00
2023-10-19T22:23:25.071Z,93.00
2023-10-19T22:25:54.224Z,93.00
2023-10-19T22:28:22.546Z,93.00
2023-10-19T22:30:50.788Z,93.00
2023-10-19T22:33:20.517Z,93.00
2023-10-19T22:35:50.440Z,93.00
2023-10-19T22:38:18.895Z,93.00
2023-10-19T22:40:47.143Z,93.00
2023-10-19T22:43:15.515Z,93.00
2023-10-19T22:45:44.215Z,93.00
2023-10-19T22:48:12.577Z,93.10
2023-10-19T22:50:42.300Z,93.10
2023-10-19T22:53:11.008Z,93.10
2023-10-19T22:55:39.189Z,93.00
2023-10-19T22:58:07.390Z,93.00
2023-10-19T23:00:36.369Z,93.00
2023-10-19T23:03:04.979Z,93.00
2023-10-19T23:05:33.689Z,93.00
2023-10-19T23:08:03.422Z,93.00
2023-10-19T23:10:33.207Z,93.10
2023-10-19T23:13:02.263Z,93.10
2023-10-19T23:15:40.798Z,93.10
2023-10-19T23:18:11.677Z,93.10
2023-10-19T23:20:41.249Z,93.10
2023-10-19T23:23:14.138Z,93.10
2023-10-19T23:25:51.165Z,93.20
2023-10-19T23:28:19.629Z,93.10
2023-10-19T23:30:48.414Z,93.10
2023-10-19T23:33:16.652Z,93.10
2023-10-19T23:35:45.084Z,93.10
2023-10-19T23:38:16.225Z,93.10
2023-10-19T23:40:44.571Z,93.20
2023-10-19T23:43:12.953Z,93.20
2023-10-19T23:45:41.210Z,93.20
2023-10-19T23:48:12.280Z,93.20
2023-10-19T23:50:40.854Z,93.20
2023-10-19T23:53:11.817Z,93.20
2023-10-19T23:55:42.237Z,93.30
2023-10-19T23:58:10.448Z,93.30
